Details From LDZD - Zadar
To LDOS - Osijek
Flight Number -
Tags Generated
Created
Modified
Stats Distance 169 nm / 313 km
Max Altitude 0 ft / 0 m
Waypoints 2
Social Downloads 0
Likes 0
Share VATSIM

Download

Looking for another format? Having issues loading an existing format? Contact us
Advertisement - Login to hide

Notes

Generated

Route

LDZD LDOS

ID Type Via Altitude Latitude Longitude Leg Dist Tot Dist Heading (true) Name
O LDZD APT - 0 ft / 0 m 44.07939˚ 15.34116˚ - 0 nm - -
O LDOS APT - 0 ft / 0 m 45.46630˚ 18.79638˚ 169 nm 169 nm 59° / 62° -

Altitude Profile

Advertisement - Login to hide

Weather


0- 5 10 15 20 25 30 35+ Temperature / ° C

Clouds and Precipitation
Forecast for 2017-12-14 06:00 UTC. Updated an hour ago

Ground ~20,000 ft ~40,000 ft Winds

LDZD

Details ICAO LDZD (ZAD)
Name ZADAR
Region Croatia
Timezone Europe/Zagreb (UTC+1.0)
Stats Elevation 289 ft / 88 m (AMSL)
Location 44.097225° 15.347978°
Runways 2
Magnetic Variation 3.701° E

METAR

LDZD 140630Z 12004KT 080V150 9999 FEW040 BKN065 07/05 Q1012 NOSIG

Decode

TAF

TAF LDZD 140525Z 1406/1506 14006KT 9999 SCT040 BKN070 TX13/1413Z TN07/1406Z BECMG 1409/1411 14012KT PROB30 TEMPO 1410/1415 RA TEMPO 1421/1506 14015G25KT

Decode

Departure Runways

ID Width Length Bearing (true) Bearing (mag) Surface Threshold Offset Overrun Length
04 147 ft / 45 m 6,519 ft / 1,987 m 41.52° 37.82° Asphalt 0 ft / 0 m 0 ft / 0 m
14 147 ft / 45 m 8,159 ft / 2,487 m 135.79° 132.09° Asphalt 0 ft / 0 m 0 ft / 0 m
22 147 ft / 45 m 6,519 ft / 1,987 m 221.53° 217.83° Asphalt 0 ft / 0 m 0 ft / 0 m
32 147 ft / 45 m 8,159 ft / 2,487 m 315.81° 312.11° Asphalt 0 ft / 0 m 0 ft / 0 m

LDOS

Details ICAO LDOS (OSI)
Name OSIJEK
Region Croatia
Timezone Europe/Zagreb (UTC+1.0)
Stats Elevation 290 ft / 88 m (AMSL)
Location 45.462353° 18.811338°
Runways 1
Magnetic Variation 4.465° E

METAR

LDOS 140630Z 17008KT 0400 FG BKN005 00/00 Q1008

Decode

TAF

TAF LDOS 140525Z 1406/1506 18008KT 0100 FZFG VV001 TX10/1413Z TN00/1406Z BECMG 1407/1410 20015KT CAVOK PROB30 TEMPO 1410/1414 20015G30KT

Decode

Destination Runways

ID Width Length Bearing (true) Bearing (mag) Surface Threshold Offset Overrun Length
11 148 ft / 45 m 8,181 ft / 2,494 m 110.60° 106.13° Asphalt 0 ft / 0 m 0 ft / 0 m
29 148 ft / 45 m 8,181 ft / 2,494 m 290.63° 286.16° Asphalt 0 ft / 0 m 0 ft / 0 m

Approach Navaids

Runway Type Ident Frequency Range Bearing (true) Bearing (mag) Slope Elevation
29 Localiser IOS 111.50 MHz 25 nm / 46 km 290.54° 286.07° - 272 ft / 83 m (AMSL)
29 Glidescope IOS 111.50 MHz 25 nm / 46 km 290.54° 286.07° 3.00° 276 ft / 84 m (AMSL)